createdAt,value
2022-08-29T00:02:18.548Z,9.1
2022-08-29T00:08:08.293Z,9.1
2022-08-29T00:13:18.521Z,9.2
2022-08-29T00:19:08.204Z,9.2
2022-08-29T00:24:08.236Z,9.2
2022-08-29T00:29:08.225Z,9.2
2022-08-29T00:34:08.242Z,9.2
2022-08-29T00:39:18.979Z,9.2
2022-08-29T00:44:18.531Z,9.2
2022-08-29T00:50:08.244Z,9.3
2022-08-29T00:55:18.517Z,9.4
2022-08-29T01:01:08.325Z,9.4
2022-08-29T01:06:18.499Z,9.5
2022-08-29T01:11:18.501Z,9.6
2022-08-29T01:16:18.554Z,9.6
2022-08-29T01:21:18.532Z,9.6
2022-08-29T01:27:08.232Z,9.6
2022-08-29T01:32:18.571Z,9.6
2022-08-29T01:38:18.499Z,9.6
2022-08-29T01:43:28.782Z,9.6
2022-08-29T01:49:08.257Z,9.6
2022-08-29T01:54:18.526Z,9.5
2022-08-29T01:59:18.535Z,9.5
2022-08-29T02:05:18.531Z,9.6
2022-08-29T02:11:08.280Z,9.9
2022-08-29T02:16:18.625Z,9.8
2022-08-29T02:22:08.254Z,10
2022-08-29T02:27:08.708Z,9.9
2022-08-29T02:32:18.533Z,9.9
2022-08-29T02:38:08.302Z,9.9
2022-08-29T02:43:18.521Z,9.9
2022-08-29T02:48:18.548Z,10
2022-08-29T02:54:08.272Z,10
2022-08-29T02:59:18.538Z,9.9
2022-08-29T03:05:08.252Z,10
2022-08-29T03:10:18.542Z,10
2022-08-29T03:15:28.819Z,10
2022-08-29T03:21:08.265Z,10
2022-08-29T03:26:08.317Z,9.9
2022-08-29T03:31:18.585Z,9.8
2022-08-29T03:37:08.254Z,9.8
2022-08-29T03:42:08.263Z,9.7
2022-08-29T03:47:08.263Z,9.7
2022-08-29T03:52:18.534Z,9.8
2022-08-29T03:57:18.544Z,9.8
2022-08-29T04:02:18.553Z,9.7
2022-08-29T04:08:08.990Z,9.7
2022-08-29T04:13:18.538Z,9.7
2022-08-29T04:19:08.887Z,9.6
2022-08-29T04:24:08.255Z,9.6
2022-08-29T04:29:18.536Z,9.7
2022-08-29T04:34:18.557Z,9.6
2022-08-29T04:39:18.549Z,9.7
2022-08-29T04:45:08.289Z,9.7
2022-08-29T04:50:18.532Z,9.7
2022-08-29T04:55:21.715Z,9.7
2022-08-29T05:00:18.540Z,9.5
2022-08-29T05:05:18.626Z,9.5
2022-08-29T05:11:08.307Z,9.5
2022-08-29T05:16:18.612Z,9.6
2022-08-29T05:21:18.549Z,9.6
2022-08-29T05:26:18.558Z,9.6
2022-08-29T05:32:08.273Z,9.6
2022-08-29T05:37:08.345Z,9.7
2022-08-29T05:42:18.550Z,9.9
2022-08-29T05:47:18.562Z,10.2
2022-08-29T05:53:08.264Z,10.6
2022-08-29T05:58:18.563Z,10.5
2022-08-29T06:03:18.758Z,11.1
2022-08-29T06:09:08.275Z,11.2
2022-08-29T06:14:08.266Z,10.6
2022-08-29T06:19:08.272Z,10.1
2022-08-29T06:24:08.289Z,10
2022-08-29T06:29:18.568Z,10.1
2022-08-29T06:34:18.576Z,9.9
2022-08-29T06:40:08.337Z,10.2
2022-08-29T06:45:18.573Z,10.2
2022-08-29T06:51:08.305Z,10
2022-08-29T06:56:11.382Z,9.7
2022-08-29T07:01:08.388Z,9.5
2022-08-29T07:06:18.594Z,9.6
2022-08-29T07:12:08.301Z,9.5
2022-08-29T07:17:08.313Z,9.5
2022-08-29T07:22:18.586Z,9.5
2022-08-29T07:28:08.349Z,9.3
2022-08-29T07:33:08.465Z,9.7
2022-08-29T07:38:08.348Z,10.2
2022-08-29T07:43:20.467Z,9.9
2022-08-29T07:49:08.309Z,9.9
2022-08-29T07:54:08.304Z,10.2
2022-08-29T07:59:18.584Z,10
2022-08-29T08:04:19.169Z,10.2
2022-08-29T08:09:18.621Z,10.3
2022-08-29T08:15:08.316Z,10.1
2022-08-29T08:20:08.332Z,10
2022-08-29T08:25:18.650Z,10.3
2022-08-29T08:31:08.407Z,10.3
2022-08-29T08:36:18.601Z,10.4
2022-08-29T08:41:18.638Z,10.5
2022-08-29T08:47:08.330Z,10.3
2022-08-29T08:52:08.342Z,10.3
2022-08-29T08:57:18.652Z,10.9
2022-08-29T09:03:08.467Z,10.7
2022-08-29T09:08:18.627Z,10.3
2022-08-29T09:13:18.634Z,9.9
2022-08-29T09:19:08.341Z,10.2
2022-08-29T09:24:08.351Z,9.8
2022-08-29T09:29:08.354Z,9.9
2022-08-29T09:34:18.639Z,9.6
2022-08-29T09:40:08.479Z,9.6
2022-08-29T09:45:18.661Z,10.3
2022-08-29T09:50:18.777Z,10.4
2022-08-29T09:56:08.367Z,10.3
2022-08-29T10:01:18.712Z,9.3
2022-08-29T10:07:08.355Z,9.8
2022-08-29T10:12:18.641Z,10
2022-08-29T10:18:08.369Z,10.1
2022-08-29T10:23:18.642Z,10
2022-08-29T10:28:18.652Z,9.4
2022-08-29T10:33:18.822Z,9.9
2022-08-29T10:39:08.385Z,9.8
2022-08-29T10:44:18.657Z,9.7
2022-08-29T10:49:18.650Z,9.9
2022-08-29T10:54:18.681Z,9.8
2022-08-29T11:00:08.384Z,9.7
2022-08-29T11:05:08.427Z,9.6
2022-08-29T11:10:18.680Z,8.9
2022-08-29T11:15:18.686Z,9.4
2022-08-29T11:21:08.429Z,9.4
2022-08-29T11:26:08.429Z,8.9
2022-08-29T11:31:18.693Z,9.3
2022-08-29T11:36:18.701Z,9.3
2022-08-29T11:42:08.577Z,9.6
2022-08-29T11:47:18.801Z,9.2
2022-08-29T11:52:20.345Z,8.9
2022-08-29T11:58:11.530Z,9
2022-08-29T12:03:27.946Z,8.8
2022-08-29T12:09:12.762Z,9.2
2022-08-29T12:14:18.705Z,9.2
2022-08-29T12:19:18.743Z,8.9
2022-08-29T12:25:08.420Z,9.4
2022-08-29T12:30:08.428Z,9
2022-08-29T12:35:18.686Z,9.1
2022-08-29T12:40:18.765Z,9.1
2022-08-29T12:45:18.727Z,8.8
2022-08-29T12:50:18.750Z,8.8
2022-08-29T12:56:08.436Z,8.5
2022-08-29T13:01:18.791Z,8.9
2022-08-29T13:07:08.435Z,8.9
2022-08-29T13:12:08.450Z,9.1
2022-08-29T13:17:18.727Z,9.2
2022-08-29T13:23:08.456Z,9.1
2022-08-29T13:28:18.820Z,8.8
2022-08-29T13:33:18.944Z,9
2022-08-29T13:39:08.451Z,9.4
2022-08-29T13:44:08.459Z,9.5
2022-08-29T13:49:18.746Z,9.5
2022-08-29T13:55:08.446Z,9.2
2022-08-29T14:00:08.490Z,9
2022-08-29T14:05:08.477Z,9.2
2022-08-29T14:10:18.748Z,9.1
2022-08-29T14:16:08.594Z,9.1
2022-08-29T14:21:18.740Z,9
2022-08-29T14:26:18.741Z,8.8
2022-08-29T14:32:08.592Z,9
2022-08-29T14:37:18.793Z,9.4
2022-08-29T14:43:08.502Z,9.4
2022-08-29T14:48:18.766Z,9.2
2022-08-29T14:54:08.545Z,9.3
2022-08-29T14:59:18.753Z,9.8
2022-08-29T15:05:08.455Z,9.6
2022-08-29T15:10:08.467Z,9.7
2022-08-29T15:15:08.489Z,9.6
2022-08-29T15:20:37.134Z,9.3
2022-08-29T15:25:08.546Z,9.5
2022-08-29T15:30:18.767Z,9.4
2022-08-29T15:35:18.782Z,9.2
2022-08-29T15:41:08.494Z,9.1
2022-08-29T15:46:18.848Z,9.5
2022-08-29T15:52:08.550Z,9.7
2022-08-29T15:57:08.505Z,10
2022-08-29T16:02:08.615Z,9.4
2022-08-29T16:07:08.520Z,9.5
2022-08-29T16:12:18.786Z,9.5
2022-08-29T16:18:08.531Z,9.9
2022-08-29T16:23:18.789Z,10.3
2022-08-29T16:29:08.549Z,10
2022-08-29T16:34:18.795Z,10.3
2022-08-29T16:39:18.811Z,10.5
2022-08-29T16:44:18.821Z,10.5
2022-08-29T16:50:08.562Z,10.2
2022-08-29T16:55:18.787Z,10.6
2022-08-29T17:00:18.807Z,10.4
2022-08-29T17:06:08.535Z,10.2
2022-08-29T17:11:08.549Z,10.3
2022-08-29T17:16:08.533Z,10.2
2022-08-29T17:21:18.791Z,10.4
2022-08-29T17:26:18.827Z,10.4
2022-08-29T17:32:08.531Z,10.4
2022-08-29T17:37:08.551Z,10.4
2022-08-29T17:42:18.894Z,10.1
2022-08-29T17:47:18.859Z,10.2
2022-08-29T17:53:08.557Z,10.2
2022-08-29T17:58:18.843Z,10.2
2022-08-29T18:03:18.824Z,10.2
2022-08-29T18:08:18.836Z,10.2
2022-08-29T18:14:08.547Z,10.2
2022-08-29T18:19:08.557Z,10.2
2022-08-29T18:24:18.822Z,10.2
2022-08-29T18:29:18.845Z,10.1
2022-08-29T18:35:08.627Z,10.1
2022-08-29T18:40:18.923Z,10.2
2022-08-29T18:46:08.672Z,10.1
2022-08-29T18:51:18.841Z,10
2022-08-29T18:56:18.840Z,10
2022-08-29T19:02:08.727Z,10
2022-08-29T19:07:08.565Z,10.1
2022-08-29T19:12:18.853Z,10
2022-08-29T19:18:08.621Z,10.1
2022-08-29T19:23:08.570Z,9.9
2022-08-29T19:28:08.588Z,9.9
2022-08-29T19:33:08.706Z,9.8
2022-08-29T19:38:18.851Z,9.6
2022-08-29T19:43:19.220Z,9.5
2022-08-29T19:49:08.584Z,9.3
2022-08-29T19:54:08.599Z,9.2
2022-08-29T19:59:18.869Z,9.2
2022-08-29T20:04:18.869Z,9.1
2022-08-29T20:14:18.881Z,8.9
2022-08-29T20:20:08.597Z,8.9
2022-08-29T20:25:08.598Z,9
2022-08-29T20:30:18.883Z,9.1
2022-08-29T20:36:08.607Z,9.1
2022-08-29T20:41:21.120Z,9.2
2022-08-29T20:47:08.600Z,9.1
2022-08-29T20:52:18.881Z,9.2
2022-08-29T20:58:08.600Z,9.1
2022-08-29T21:03:08.699Z,9.2
2022-08-29T21:08:18.888Z,9.3
2022-08-29T21:13:18.904Z,9.1
2022-08-29T21:18:20.253Z,9.3
2022-08-29T21:23:18.928Z,9.2
2022-08-29T21:28:18.951Z,9.3
2022-08-29T21:34:08.602Z,9.3
2022-08-29T21:39:08.630Z,9.4
2022-08-29T21:44:18.906Z,9.4
2022-08-29T21:49:18.898Z,9.4
2022-08-29T21:54:18.899Z,9.4
2022-08-29T22:00:08.635Z,9.4
2022-08-29T22:05:18.908Z,9.4
2022-08-29T22:10:18.940Z,9.4
2022-08-29T22:16:08.682Z,9.5
2022-08-29T22:21:18.908Z,9.4
2022-08-29T22:26:18.919Z,9.5
2022-08-29T22:32:08.789Z,9.5
2022-08-29T22:37:18.912Z,9.6
2022-08-29T22:42:18.963Z,9.6
2022-08-29T22:48:08.631Z,9.4
2022-08-29T22:53:18.916Z,9.4
2022-08-29T22:58:18.931Z,9.3
2022-08-29T23:03:19.242Z,9.1
2022-08-29T23:09:08.617Z,9.1
2022-08-29T23:14:20.722Z,9.3
2022-08-29T23:20:08.670Z,9.4
2022-08-29T23:25:18.917Z,9.2
2022-08-29T23:30:19.164Z,9.2
2022-08-29T23:36:08.720Z,9.4
2022-08-29T23:41:18.912Z,9.5
2022-08-29T23:47:08.717Z,9.4
2022-08-29T23:52:18.948Z,9.3
2022-08-29T23:58:08.628Z,9.3
